sensor_id;sensor_type;location;lat;lon;timestamp;temperature;humidity
4757;DHT22;2392;52.578;13.426;2024-03-06T00:00:43;4.40;99.90
4757;DHT22;2392;52.578;13.426;2024-03-06T00:03:10;4.30;99.90
4757;DHT22;2392;52.578;13.426;2024-03-06T00:05:37;4.30;99.90
4757;DHT22;2392;52.578;13.426;2024-03-06T00:08:04;4.20;99.90
4757;DHT22;2392;52.578;13.426;2024-03-06T00:10:31;4.20;99.90
4757;DHT22;2392;52.578;13.426;2024-03-06T00:12:57;4.20;99.90
4757;DHT22;2392;52.578;13.426;2024-03-06T00:15:24;4.10;99.90
4757;DHT22;2392;52.578;13.426;2024-03-06T00:17:52;4.10;99.90
4757;DHT22;2392;52.578;13.426;2024-03-06T00:20:18;4.10;99.90
4757;DHT22;2392;52.578;13.426;2024-03-06T00:22:45;4.00;99.90
4757;DHT22;2392;52.578;13.426;2024-03-06T00:25:12;4.00;99.90
4757;DHT22;2392;52.578;13.426;2024-03-06T00:27:39;3.90;99.90
4757;DHT22;2392;52.578;13.426;2024-03-06T00:30:07;3.90;99.90
4757;DHT22;2392;52.578;13.426;2024-03-06T00:32:34;3.80;99.90
4757;DHT22;2392;52.578;13.426;2024-03-06T00:35:02;3.80;99.90
4757;DHT22;2392;52.578;13.426;2024-03-06T00:37:29;3.80;99.90
4757;DHT22;2392;52.578;13.426;2024-03-06T00:39:56;3.70;99.90
4757;DHT22;2392;52.578;13.426;2024-03-06T00:42:23;3.70;99.90
4757;DHT22;2392;52.578;13.426;2024-03-06T00:44:50;3.70;99.90
4757;DHT22;2392;52.578;13.426;2024-03-06T00:47:16;3.70;99.90
4757;DHT22;2392;52.578;13.426;2024-03-06T00:49:43;3.70;99.90
4757;DHT22;2392;52.578;13.426;2024-03-06T00:52:11;3.70;99.90
4757;DHT22;2392;52.578;13.426;2024-03-06T00:54:38;3.70;99.90
4757;DHT22;2392;52.578;13.426;2024-03-06T00:57:05;3.70;99.90
4757;DHT22;2392;52.578;13.426;2024-03-06T00:59:31;3.70;99.90
4757;DHT22;2392;52.578;13.426;2024-03-06T01:01:58;3.70;99.90
4757;DHT22;2392;52.578;13.426;2024-03-06T01:04:25;3.60;99.90
4757;DHT22;2392;52.578;13.426;2024-03-06T01:06:52;3.50;99.90
4757;DHT22;2392;52.578;13.426;2024-03-06T01:09:20;3.60;99.90
4757;DHT22;2392;52.578;13.426;2024-03-06T01:11:48;3.50;99.90
4757;DHT22;2392;52.578;13.426;2024-03-06T01:14:16;3.50;99.90
4757;DHT22;2392;52.578;13.426;2024-03-06T01:16:43;3.50;99.90
4757;DHT22;2392;52.578;13.426;2024-03-06T01:19:09;3.50;99.90
4757;DHT22;2392;52.578;13.426;2024-03-06T01:21:36;3.50;99.90
4757;DHT22;2392;52.578;13.426;2024-03-06T01:24:04;3.40;99.90
4757;DHT22;2392;52.578;13.426;2024-03-06T01:26:33;3.40;99.90
4757;DHT22;2392;52.578;13.426;2024-03-06T01:29:00;3.40;99.90
4757;DHT22;2392;52.578;13.426;2024-03-06T01:31:26;3.40;99.90
4757;DHT22;2392;52.578;13.426;2024-03-06T01:33:53;3.40;99.90
4757;DHT22;2392;52.578;13.426;2024-03-06T01:36:20;3.40;99.90
4757;DHT22;2392;52.578;13.426;2024-03-06T01:38:46;3.30;99.90
4757;DHT22;2392;52.578;13.426;2024-03-06T01:41:14;3.30;99.90
4757;DHT22;2392;52.578;13.426;2024-03-06T01:43:42;3.20;99.90
4757;DHT22;2392;52.578;13.426;2024-03-06T01:46:09;3.20;99.90
4757;DHT22;2392;52.578;13.426;2024-03-06T01:48:36;3.20;99.90
4757;DHT22;2392;52.578;13.426;2024-03-06T01:51:03;3.20;99.90
4757;DHT22;2392;52.578;13.426;2024-03-06T01:53:31;3.20;99.90
4757;DHT22;2392;52.578;13.426;2024-03-06T01:56:03;3.20;99.90
4757;DHT22;2392;52.578;13.426;2024-03-06T01:58:33;3.10;99.90
4757;DHT22;2392;52.578;13.426;2024-03-06T02:01:02;3.10;99.90
4757;DHT22;2392;52.578;13.426;2024-03-06T02:03:29;3.10;99.90
4757;DHT22;2392;52.578;13.426;2024-03-06T02:06:00;3.10;99.90
4757;DHT22;2392;52.578;13.426;2024-03-06T02:08:28;3.10;99.90
4757;DHT22;2392;52.578;13.426;2024-03-06T02:10:55;3.00;99.90
4757;DHT22;2392;52.578;13.426;2024-03-06T02:13:22;3.00;99.90
4757;DHT22;2392;52.578;13.426;2024-03-06T02:15:49;2.90;99.90
4757;DHT22;2392;52.578;13.426;2024-03-06T02:18:17;2.90;99.90
4757;DHT22;2392;52.578;13.426;2024-03-06T02:20:45;2.90;99.90
4757;DHT22;2392;52.578;13.426;2024-03-06T02:23:12;2.80;99.90
4757;DHT22;2392;52.578;13.426;2024-03-06T02:25:40;2.80;99.90
4757;DHT22;2392;52.578;13.426;2024-03-06T02:28:06;2.70;99.90
4757;DHT22;2392;52.578;13.426;2024-03-06T02:30:34;2.70;99.90
4757;DHT22;2392;52.578;13.426;2024-03-06T02:33:02;2.70;99.90
4757;DHT22;2392;52.578;13.426;2024-03-06T02:35:29;2.70;99.90
4757;DHT22;2392;52.578;13.426;2024-03-06T02:37:58;2.70;99.90
4757;DHT22;2392;52.578;13.426;2024-03-06T02:40:24;2.70;99.90
4757;DHT22;2392;52.578;13.426;2024-03-06T02:42:51;2.60;99.90
4757;DHT22;2392;52.578;13.426;2024-03-06T02:45:18;2.60;99.90
4757;DHT22;2392;52.578;13.426;2024-03-06T02:47:45;2.60;99.90
4757;DHT22;2392;52.578;13.426;2024-03-06T02:50:12;2.60;99.90
4757;DHT22;2392;52.578;13.426;2024-03-06T02:52:39;2.60;99.90
4757;DHT22;2392;52.578;13.426;2024-03-06T02:55:07;2.60;99.90
4757;DHT22;2392;52.578;13.426;2024-03-06T02:57:34;2.50;99.90
4757;DHT22;2392;52.578;13.426;2024-03-06T03:00:01;2.50;99.90
4757;DHT22;2392;52.578;13.426;2024-03-06T03:02:28;2.50;99.90
4757;DHT22;2392;52.578;13.426;2024-03-06T03:04:55;2.50;99.90
4757;DHT22;2392;52.578;13.426;2024-03-06T03:07:21;2.50;99.90
4757;DHT22;2392;52.578;13.426;2024-03-06T03:09:49;2.50;99.90
4757;DHT22;2392;52.578;13.426;2024-03-06T03:12:17;2.50;99.90
4757;DHT22;2392;52.578;13.426;2024-03-06T03:14:43;2.50;99.90
4757;DHT22;2392;52.578;13.426;2024-03-06T03:17:10;2.40;99.90
4757;DHT22;2392;52.578;13.426;2024-03-06T03:19:38;2.40;99.90
4757;DHT22;2392;52.578;13.426;2024-03-06T03:22:05;2.40;99.90
4757;DHT22;2392;52.578;13.426;2024-03-06T03:24:33;2.40;99.90
4757;DHT22;2392;52.578;13.426;2024-03-06T03:27:00;2.40;99.90
4757;DHT22;2392;52.578;13.426;2024-03-06T03:29:28;2.40;99.90
4757;DHT22;2392;52.578;13.426;2024-03-06T03:31:55;2.40;99.90
4757;DHT22;2392;52.578;13.426;2024-03-06T03:34:25;2.40;99.90
4757;DHT22;2392;52.578;13.426;2024-03-06T03:36:51;2.40;99.90
4757;DHT22;2392;52.578;13.426;2024-03-06T03:39:18;2.40;99.90
4757;DHT22;2392;52.578;13.426;2024-03-06T03:41:48;2.40;99.90
4757;DHT22;2392;52.578;13.426;2024-03-06T03:44:15;2.40;99.90
4757;DHT22;2392;52.578;13.426;2024-03-06T03:46:43;2.40;99.90
4757;DHT22;2392;52.578;13.426;2024-03-06T03:49:10;2.40;99.90
4757;DHT22;2392;52.578;13.426;2024-03-06T03:51:38;2.40;99.90
4757;DHT22;2392;52.578;13.426;2024-03-06T03:54:07;2.30;99.90
4757;DHT22;2392;52.578;13.426;2024-03-06T03:56:35;2.30;99.90
4757;DHT22;2392;52.578;13.426;2024-03-06T03:59:03;2.20;99.90
4757;DHT22;2392;52.578;13.426;2024-03-06T04:01:29;2.30;99.90
4757;DHT22;2392;52.578;13.426;2024-03-06T04:04:00;2.30;99.90
4757;DHT22;2392;52.578;13.426;2024-03-06T04:06:27;2.30;99.90
4757;DHT22;2392;52.578;13.426;2024-03-06T04:08:53;2.20;99.90
4757;DHT22;2392;52.578;13.426;2024-03-06T04:11:23;2.20;99.90
4757;DHT22;2392;52.578;13.426;2024-03-06T04:13:50;2.20;99.90
4757;DHT22;2392;52.578;13.426;2024-03-06T04:16:17;2.20;99.90
4757;DHT22;2392;52.578;13.426;2024-03-06T04:18:44;2.20;99.90
4757;DHT22;2392;52.578;13.426;2024-03-06T04:21:12;2.20;99.90
4757;DHT22;2392;52.578;13.426;2024-03-06T04:23:40;2.20;99.90
4757;DHT22;2392;52.578;13.426;2024-03-06T04:26:07;2.10;99.90
4757;DHT22;2392;52.578;13.426;2024-03-06T04:28:34;2.10;99.90
4757;DHT22;2392;52.578;13.426;2024-03-06T04:31:00;2.10;99.90
4757;DHT22;2392;52.578;13.426;2024-03-06T04:33:27;2.10;99.90
4757;DHT22;2392;52.578;13.426;2024-03-06T04:35:54;2.10;99.90
4757;DHT22;2392;52.578;13.426;2024-03-06T04:38:22;2.10;99.90
4757;DHT22;2392;52.578;13.426;2024-03-06T04:40:48;2.10;99.90
4757;DHT22;2392;52.578;13.426;2024-03-06T04:43:15;2.00;99.90
4757;DHT22;2392;52.578;13.426;2024-03-06T04:45:41;2.00;99.90
4757;DHT22;2392;52.578;13.426;2024-03-06T04:48:08;2.00;99.90
4757;DHT22;2392;52.578;13.426;2024-03-06T04:50:35;2.00;99.90
4757;DHT22;2392;52.578;13.426;2024-03-06T04:53:01;2.00;99.90
4757;DHT22;2392;52.578;13.426;2024-03-06T04:55:29;2.00;99.90
4757;DHT22;2392;52.578;13.426;2024-03-06T04:57:56;2.00;99.90
4757;DHT22;2392;52.578;13.426;2024-03-06T05:00:23;2.00;99.90
4757;DHT22;2392;52.578;13.426;2024-03-06T05:02:50;1.90;99.90
4757;DHT22;2392;52.578;13.426;2024-03-06T05:05:17;1.90;99.90
4757;DHT22;2392;52.578;13.426;2024-03-06T05:07:44;1.90;99.90
4757;DHT22;2392;52.578;13.426;2024-03-06T05:10:11;1.90;99.90
4757;DHT22;2392;52.578;13.426;2024-03-06T05:12:38;1.80;99.90
4757;DHT22;2392;52.578;13.426;2024-03-06T05:15:06;1.90;99.90
4757;DHT22;2392;52.578;13.426;2024-03-06T05:17:33;1.80;99.90
4757;DHT22;2392;52.578;13.426;2024-03-06T05:20:00;1.80;99.90
4757;DHT22;2392;52.578;13.426;2024-03-06T05:22:29;1.80;99.90
4757;DHT22;2392;52.578;13.426;2024-03-06T05:24:56;1.80;99.90
4757;DHT22;2392;52.578;13.426;2024-03-06T05:27:24;1.80;99.90
4757;DHT22;2392;52.578;13.426;2024-03-06T05:29:52;1.70;99.90
4757;DHT22;2392;52.578;13.426;2024-03-06T05:32:20;1.70;99.90
4757;DHT22;2392;52.578;13.426;2024-03-06T05:34:46;1.70;99.90
4757;DHT22;2392;52.578;13.426;2024-03-06T05:37:13;1.70;99.90
4757;DHT22;2392;52.578;13.426;2024-03-06T05:39:40;1.80;99.90
4757;DHT22;2392;52.578;13.426;2024-03-06T05:42:08;1.80;99.90
4757;DHT22;2392;52.578;13.426;2024-03-06T05:44:34;1.70;99.90
4757;DHT22;2392;52.578;13.426;2024-03-06T05:47:03;1.70;99.90
4757;DHT22;2392;52.578;13.426;2024-03-06T05:49:29;1.60;99.90
4757;DHT22;2392;52.578;13.426;2024-03-06T05:51:59;1.60;99.90
4757;DHT22;2392;52.578;13.426;2024-03-06T05:54:25;1.50;99.90
4757;DHT22;2392;52.578;13.426;2024-03-06T05:56:53;1.50;99.90
4757;DHT22;2392;52.578;13.426;2024-03-06T05:59:20;1.40;99.90
4757;DHT22;2392;52.578;13.426;2024-03-06T06:01:46;1.40;99.90
4757;DHT22;2392;52.578;13.426;2024-03-06T06:04:14;1.40;99.90
4757;DHT22;2392;52.578;13.426;2024-03-06T06:06:41;1.40;99.90
4757;DHT22;2392;52.578;13.426;2024-03-06T06:09:08;1.40;99.90
4757;DHT22;2392;52.578;13.426;2024-03-06T06:11:38;1.40;99.90
4757;DHT22;2392;52.578;13.426;2024-03-06T06:14:05;1.50;99.90
4757;DHT22;2392;52.578;13.426;2024-03-06T06:16:36;1.50;99.90
4757;DHT22;2392;52.578;13.426;2024-03-06T06:19:03;1.50;99.90
4757;DHT22;2392;52.578;13.426;2024-03-06T06:21:32;1.50;99.90
4757;DHT22;2392;52.578;13.426;2024-03-06T06:24:01;1.50;99.90
4757;DHT22;2392;52.578;13.426;2024-03-06T06:26:29;1.50;99.90
4757;DHT22;2392;52.578;13.426;2024-03-06T06:28:56;1.50;99.90
4757;DHT22;2392;52.578;13.426;2024-03-06T06:31:22;1.50;99.90
4757;DHT22;2392;52.578;13.426;2024-03-06T06:33:50;1.50;99.90
4757;DHT22;2392;52.578;13.426;2024-03-06T06:36:17;1.50;99.90
4757;DHT22;2392;52.578;13.426;2024-03-06T06:38:46;1.60;99.90
4757;DHT22;2392;52.578;13.426;2024-03-06T06:41:13;1.60;99.90
4757;DHT22;2392;52.578;13.426;2024-03-06T06:43:40;1.60;99.90
4757;DHT22;2392;52.578;13.426;2024-03-06T06:46:07;1.60;99.90
4757;DHT22;2392;52.578;13.426;2024-03-06T06:48:33;1.70;99.90
4757;DHT22;2392;52.578;13.426;2024-03-06T06:51:00;1.80;99.90
4757;DHT22;2392;52.578;13.426;2024-03-06T06:53:28;1.80;99.90
4757;DHT22;2392;52.578;13.426;2024-03-06T06:55:56;1.90;99.90
4757;DHT22;2392;52.578;13.426;2024-03-06T06:58:23;1.90;99.90
4757;DHT22;2392;52.578;13.426;2024-03-06T07:00:49;2.00;99.90
4757;DHT22;2392;52.578;13.426;2024-03-06T07:03:16;2.10;99.90
4757;DHT22;2392;52.578;13.426;2024-03-06T07:05:43;2.20;99.90
4757;DHT22;2392;52.578;13.426;2024-03-06T07:08:09;2.20;99.90
4757;DHT22;2392;52.578;13.426;2024-03-06T07:10:36;2.30;99.90
4757;DHT22;2392;52.578;13.426;2024-03-06T07:13:04;2.30;99.90
4757;DHT22;2392;52.578;13.426;2024-03-06T07:15:31;2.40;99.90
4757;DHT22;2392;52.578;13.426;2024-03-06T07:17:58;2.50;99.90
4757;DHT22;2392;52.578;13.426;2024-03-06T07:20:24;2.50;99.90
4757;DHT22;2392;52.578;13.426;2024-03-06T07:22:51;2.60;99.90
4757;DHT22;2392;52.578;13.426;2024-03-06T07:25:18;2.60;99.90
4757;DHT22;2392;52.578;13.426;2024-03-06T07:27:46;2.70;99.90
4757;DHT22;2392;52.578;13.426;2024-03-06T07:30:14;2.80;99.90
4757;DHT22;2392;52.578;13.426;2024-03-06T07:32:41;2.80;99.90
4757;DHT22;2392;52.578;13.426;2024-03-06T07:35:08;2.90;99.90
4757;DHT22;2392;52.578;13.426;2024-03-06T07:37:35;3.00;99.90
4757;DHT22;2392;52.578;13.426;2024-03-06T07:40:02;3.00;99.90
4757;DHT22;2392;52.578;13.426;2024-03-06T07:42:30;3.10;99.90
4757;DHT22;2392;52.578;13.426;2024-03-06T07:44:57;3.10;99.90
4757;DHT22;2392;52.578;13.426;2024-03-06T07:47:25;3.20;99.90
4757;DHT22;2392;52.578;13.426;2024-03-06T07:49:52;3.30;99.90
4757;DHT22;2392;52.578;13.426;2024-03-06T07:52:18;3.40;99.90
4757;DHT22;2392;52.578;13.426;2024-03-06T07:54:45;3.40;99.90
4757;DHT22;2392;52.578;13.426;2024-03-06T07:57:12;3.50;99.90
4757;DHT22;2392;52.578;13.426;2024-03-06T07:59:39;3.60;99.90
4757;DHT22;2392;52.578;13.426;2024-03-06T08:02:06;3.70;99.90
4757;DHT22;2392;52.578;13.426;2024-03-06T08:04:34;3.70;99.90
4757;DHT22;2392;52.578;13.426;2024-03-06T08:07:01;3.80;99.90
4757;DHT22;2392;52.578;13.426;2024-03-06T08:09:28;3.90;99.90
4757;DHT22;2392;52.578;13.426;2024-03-06T08:11:54;4.00;99.90
4757;DHT22;2392;52.578;13.426;2024-03-06T08:14:21;4.10;99.90
4757;DHT22;2392;52.578;13.426;2024-03-06T08:16:49;4.20;99.90
4757;DHT22;2392;52.578;13.426;2024-03-06T08:19:16;4.30;99.90
4757;DHT22;2392;52.578;13.426;2024-03-06T08:21:44;4.40;99.90
4757;DHT22;2392;52.578;13.426;2024-03-06T08:24:11;4.40;99.90
4757;DHT22;2392;52.578;13.426;2024-03-06T08:26:38;4.50;99.90
4757;DHT22;2392;52.578;13.426;2024-03-06T08:29:04;4.60;99.90
4757;DHT22;2392;52.578;13.426;2024-03-06T08:31:32;4.70;99.90
4757;DHT22;2392;52.578;13.426;2024-03-06T08:33:58;4.80;99.90
4757;DHT22;2392;52.578;13.426;2024-03-06T08:36:25;4.90;99.90
4757;DHT22;2392;52.578;13.426;2024-03-06T08:38:53;5.00;99.90
4757;DHT22;2392;52.578;13.426;2024-03-06T08:41:20;5.10;99.90
4757;DHT22;2392;52.578;13.426;2024-03-06T08:43:47;5.20;99.90
4757;DHT22;2392;52.578;13.426;2024-03-06T08:46:13;5.30;99.90
4757;DHT22;2392;52.578;13.426;2024-03-06T08:48:40;5.40;99.90
4757;DHT22;2392;52.578;13.426;2024-03-06T08:51:07;5.40;99.90
4757;DHT22;2392;52.578;13.426;2024-03-06T08:53:36;5.50;99.90
4757;DHT22;2392;52.578;13.426;2024-03-06T08:56:05;5.60;99.90
4757;DHT22;2392;52.578;13.426;2024-03-06T08:58:32;5.70;99.90
4757;DHT22;2392;52.578;13.426;2024-03-06T09:00:58;5.70;99.90
4757;DHT22;2392;52.578;13.426;2024-03-06T09:03:25;5.80;99.90
4757;DHT22;2392;52.578;13.426;2024-03-06T09:05:52;5.90;99.90
4757;DHT22;2392;52.578;13.426;2024-03-06T09:08:18;6.00;99.90
4757;DHT22;2392;52.578;13.426;2024-03-06T09:10:45;6.00;99.90
4757;DHT22;2392;52.578;13.426;2024-03-06T09:13:13;6.00;99.90
4757;DHT22;2392;52.578;13.426;2024-03-06T09:15:40;6.10;99.90
4757;DHT22;2392;52.578;13.426;2024-03-06T09:18:06;6.10;99.90
4757;DHT22;2392;52.578;13.426;2024-03-06T09:20:33;6.10;99.90
4757;DHT22;2392;52.578;13.426;2024-03-06T09:23:00;6.10;99.90
4757;DHT22;2392;52.578;13.426;2024-03-06T09:25:26;6.20;99.90
4757;DHT22;2392;52.578;13.426;2024-03-06T09:27:54;6.20;99.90
4757;DHT22;2392;52.578;13.426;2024-03-06T09:30:22;6.30;99.90
4757;DHT22;2392;52.578;13.426;2024-03-06T09:32:48;6.40;99.90
4757;DHT22;2392;52.578;13.426;2024-03-06T09:35:15;6.40;99.90
4757;DHT22;2392;52.578;13.426;2024-03-06T09:37:44;6.50;99.90
4757;DHT22;2392;52.578;13.426;2024-03-06T09:40:19;6.50;99.90
4757;DHT22;2392;52.578;13.426;2024-03-06T09:42:47;6.50;99.90
4757;DHT22;2392;52.578;13.426;2024-03-06T09:45:14;6.70;99.90
4757;DHT22;2392;52.578;13.426;2024-03-06T09:47:43;6.80;99.90
4757;DHT22;2392;52.578;13.426;2024-03-06T09:50:12;6.80;99.90
4757;DHT22;2392;52.578;13.426;2024-03-06T09:52:43;6.90;99.90
4757;DHT22;2392;52.578;13.426;2024-03-06T09:55:12;7.00;99.90
4757;DHT22;2392;52.578;13.426;2024-03-06T09:57:40;7.10;99.90
4757;DHT22;2392;52.578;13.426;2024-03-06T10:00:08;7.30;99.90
4757;DHT22;2392;52.578;13.426;2024-03-06T10:02:41;7.70;99.90
4757;DHT22;2392;52.578;13.426;2024-03-06T10:05:22;8.20;99.90
4757;DHT22;2392;52.578;13.426;2024-03-06T10:07:50;8.90;99.90
4757;DHT22;2392;52.578;13.426;2024-03-06T10:10:19;9.70;99.90
4757;DHT22;2392;52.578;13.426;2024-03-06T10:12:49;10.70;99.90
4757;DHT22;2392;52.578;13.426;2024-03-06T10:15:15;11.70;99.90
4757;DHT22;2392;52.578;13.426;2024-03-06T10:17:42;12.40;99.90
4757;DHT22;2392;52.578;13.426;2024-03-06T10:20:17;12.90;99.90
4757;DHT22;2392;52.578;13.426;2024-03-06T10:22:47;12.70;99.90
4757;DHT22;2392;52.578;13.426;2024-03-06T10:25:15;12.20;99.90
4757;DHT22;2392;52.578;13.426;2024-03-06T10:27:43;11.70;99.90
4757;DHT22;2392;52.578;13.426;2024-03-06T10:30:11;11.20;99.90
4757;DHT22;2392;52.578;13.426;2024-03-06T10:32:39;11.30;99.90
4757;DHT22;2392;52.578;13.426;2024-03-06T10:35:07;11.90;99.90
4757;DHT22;2392;52.578;13.426;2024-03-06T10:37:34;12.80;99.90
4757;DHT22;2392;52.578;13.426;2024-03-06T10:40:04;13.70;99.90
4757;DHT22;2392;52.578;13.426;2024-03-06T10:42:33;14.60;99.90
4757;DHT22;2392;52.578;13.426;2024-03-06T10:45:03;15.30;99.90
4757;DHT22;2392;52.578;13.426;2024-03-06T10:47:31;15.90;99.90
4757;DHT22;2392;52.578;13.426;2024-03-06T10:50:00;16.60;99.90
4757;DHT22;2392;52.578;13.426;2024-03-06T10:52:27;17.20;99.90
4757;DHT22;2392;52.578;13.426;2024-03-06T10:54:55;17.70;99.90
4757;DHT22;2392;52.578;13.426;2024-03-06T10:57:26;18.40;99.90
4757;DHT22;2392;52.578;13.426;2024-03-06T10:59:56;18.90;99.90
4757;DHT22;2392;52.578;13.426;2024-03-06T11:02:24;19.20;99.90
4757;DHT22;2392;52.578;13.426;2024-03-06T11:04:54;18.90;97.40
4757;DHT22;2392;52.578;13.426;2024-03-06T11:07:21;18.00;97.10
4757;DHT22;2392;52.578;13.426;2024-03-06T11:09:47;17.20;97.20
4757;DHT22;2392;52.578;13.426;2024-03-06T11:12:33;16.60;98.00
4757;DHT22;2392;52.578;13.426;2024-03-06T11:15:07;16.00;98.00
4757;DHT22;2392;52.578;13.426;2024-03-06T11:17:34;15.90;99.10
4757;DHT22;2392;52.578;13.426;2024-03-06T11:20:15;16.40;99.70
4757;DHT22;2392;52.578;13.426;2024-03-06T11:23:04;16.80;99.00
4757;DHT22;2392;52.578;13.426;2024-03-06T11:25:56;16.70;98.10
4757;DHT22;2392;52.578;13.426;2024-03-06T11:28:27;16.10;97.60
4757;DHT22;2392;52.578;13.426;2024-03-06T11:30:58;15.90;97.90
4757;DHT22;2392;52.578;13.426;2024-03-06T11:33:28;16.20;98.40
4757;DHT22;2392;52.578;13.426;2024-03-06T11:36:18;16.80;98.40
4757;DHT22;2392;52.578;13.426;2024-03-06T11:38:52;17.60;97.70
4757;DHT22;2392;52.578;13.426;2024-03-06T11:41:20;18.30;97.80
4757;DHT22;2392;52.578;13.426;2024-03-06T11:43:50;18.50;97.10
4757;DHT22;2392;52.578;13.426;2024-03-06T11:46:19;18.80;95.90
4757;DHT22;2392;52.578;13.426;2024-03-06T11:48:52;19.10;95.20
4757;DHT22;2392;52.578;13.426;2024-03-06T11:51:20;19.50;94.40
4757;DHT22;2392;52.578;13.426;2024-03-06T11:53:49;19.80;93.80
4757;DHT22;2392;52.578;13.426;2024-03-06T11:56:17;20.00;93.50
4757;DHT22;2392;52.578;13.426;2024-03-06T11:58:45;19.60;92.70
4757;DHT22;2392;52.578;13.426;2024-03-06T12:01:13;18.60;92.50
4757;DHT22;2392;52.578;13.426;2024-03-06T12:03:41;17.60;92.80
4757;DHT22;2392;52.578;13.426;2024-03-06T12:06:08;16.60;93.00
4757;DHT22;2392;52.578;13.426;2024-03-06T12:08:35;16.00;94.10
4757;DHT22;2392;52.578;13.426;2024-03-06T12:11:02;15.80;94.70
4757;DHT22;2392;52.578;13.426;2024-03-06T12:13:30;16.10;95.10
4757;DHT22;2392;52.578;13.426;2024-03-06T12:15:56;16.30;95.40
4757;DHT22;2392;52.578;13.426;2024-03-06T12:18:24;16.50;95.60
4757;DHT22;2392;52.578;13.426;2024-03-06T12:20:51;16.30;95.20
4757;DHT22;2392;52.578;13.426;2024-03-06T12:23:21;15.90;95.10
4757;DHT22;2392;52.578;13.426;2024-03-06T12:26:01;15.50;95.10
4757;DHT22;2392;52.578;13.426;2024-03-06T12:28:28;15.10;95.70
4757;DHT22;2392;52.578;13.426;2024-03-06T12:30:55;14.50;95.50
4757;DHT22;2392;52.578;13.426;2024-03-06T12:33:27;14.10;95.80
4757;DHT22;2392;52.578;13.426;2024-03-06T12:36:02;13.50;96.10
4757;DHT22;2392;52.578;13.426;2024-03-06T12:38:29;13.10;97.10
4757;DHT22;2392;52.578;13.426;2024-03-06T12:40:55;12.70;97.80
4757;DHT22;2392;52.578;13.426;2024-03-06T12:43:22;12.40;98.20
4757;DHT22;2392;52.578;13.426;2024-03-06T12:45:49;12.10;98.90
4757;DHT22;2392;52.578;13.426;2024-03-06T12:48:16;12.00;99.50
4757;DHT22;2392;52.578;13.426;2024-03-06T12:50:44;11.90;99.80
4757;DHT22;2392;52.578;13.426;2024-03-06T12:53:16;11.90;99.50
4757;DHT22;2392;52.578;13.426;2024-03-06T12:55:42;11.70;99.10
4757;DHT22;2392;52.578;13.426;2024-03-06T12:58:11;11.60;99.00
4757;DHT22;2392;52.578;13.426;2024-03-06T13:00:39;11.50;98.90
4757;DHT22;2392;52.578;13.426;2024-03-06T13:03:06;11.30;99.00
4757;DHT22;2392;52.578;13.426;2024-03-06T13:05:33;11.20;99.50
4757;DHT22;2392;52.578;13.426;2024-03-06T13:08:01;11.10;99.90
4757;DHT22;2392;52.578;13.426;2024-03-06T13:10:28;11.00;99.90
4757;DHT22;2392;52.578;13.426;2024-03-06T13:12:54;11.00;99.90
4757;DHT22;2392;52.578;13.426;2024-03-06T13:15:21;11.40;99.90
4757;DHT22;2392;52.578;13.426;2024-03-06T13:17:48;11.90;99.90
4757;DHT22;2392;52.578;13.426;2024-03-06T13:20:14;12.20;99.30
4757;DHT22;2392;52.578;13.426;2024-03-06T13:22:41;12.40;98.40
4757;DHT22;2392;52.578;13.426;2024-03-06T13:25:10;12.40;98.00
4757;DHT22;2392;52.578;13.426;2024-03-06T13:27:37;12.20;97.30
4757;DHT22;2392;52.578;13.426;2024-03-06T13:30:05;12.10;97.30
4757;DHT22;2392;52.578;13.426;2024-03-06T13:32:33;12.10;97.70
4757;DHT22;2392;52.578;13.426;2024-03-06T13:35:00;12.10;97.80
4757;DHT22;2392;52.578;13.426;2024-03-06T13:37:26;12.10;98.00
4757;DHT22;2392;52.578;13.426;2024-03-06T13:39:53;12.10;98.10
4757;DHT22;2392;52.578;13.426;2024-03-06T13:42:26;12.00;98.30
4757;DHT22;2392;52.578;13.426;2024-03-06T13:44:52;12.00;98.30
4757;DHT22;2392;52.578;13.426;2024-03-06T13:47:19;11.90;98.20
4757;DHT22;2392;52.578;13.426;2024-03-06T13:49:46;11.90;98.10
4757;DHT22;2392;52.578;13.426;2024-03-06T13:52:12;11.90;97.80
4757;DHT22;2392;52.578;13.426;2024-03-06T13:54:42;12.00;98.20
4757;DHT22;2392;52.578;13.426;2024-03-06T13:57:09;12.00;97.50
4757;DHT22;2392;52.578;13.426;2024-03-06T13:59:37;12.00;97.70
4757;DHT22;2392;52.578;13.426;2024-03-06T14:02:03;12.00;97.80
4757;DHT22;2392;52.578;13.426;2024-03-06T14:04:30;11.90;97.70
4757;DHT22;2392;52.578;13.426;2024-03-06T14:06:57;11.70;97.60
4757;DHT22;2392;52.578;13.426;2024-03-06T14:09:25;11.60;98.00
4757;DHT22;2392;52.578;13.426;2024-03-06T14:11:52;11.40;98.10
4757;DHT22;2392;52.578;13.426;2024-03-06T14:14:19;11.30;98.20
4757;DHT22;2392;52.578;13.426;2024-03-06T14:16:47;11.20;98.60
4757;DHT22;2392;52.578;13.426;2024-03-06T14:19:14;11.00;98.90
4757;DHT22;2392;52.578;13.426;2024-03-06T14:21:41;10.90;99.30
4757;DHT22;2392;52.578;13.426;2024-03-06T14:24:07;10.80;99.80
4757;DHT22;2392;52.578;13.426;2024-03-06T14:26:34;10.60;99.90
4757;DHT22;2392;52.578;13.426;2024-03-06T14:29:02;10.50;99.90
4757;DHT22;2392;52.578;13.426;2024-03-06T14:31:31;10.30;99.90
4757;DHT22;2392;52.578;13.426;2024-03-06T14:33:59;10.20;99.90
4757;DHT22;2392;52.578;13.426;2024-03-06T14:36:26;10.10;99.90
4757;DHT22;2392;52.578;13.426;2024-03-06T14:38:53;10.00;99.90
4757;DHT22;2392;52.578;13.426;2024-03-06T14:41:20;9.90;99.90
4757;DHT22;2392;52.578;13.426;2024-03-06T14:43:47;9.90;99.90
4757;DHT22;2392;52.578;13.426;2024-03-06T14:46:14;9.90;99.90
4757;DHT22;2392;52.578;13.426;2024-03-06T14:48:41;9.90;99.90
4757;DHT22;2392;52.578;13.426;2024-03-06T14:51:09;9.90;99.90
4757;DHT22;2392;52.578;13.426;2024-03-06T14:53:36;9.90;99.90
4757;DHT22;2392;52.578;13.426;2024-03-06T14:56:02;9.90;99.90
4757;DHT22;2392;52.578;13.426;2024-03-06T14:58:29;9.90;99.90
4757;DHT22;2392;52.578;13.426;2024-03-06T15:00:55;10.00;99.90
4757;DHT22;2392;52.578;13.426;2024-03-06T15:03:22;9.90;99.90
4757;DHT22;2392;52.578;13.426;2024-03-06T15:05:49;9.90;99.90
4757;DHT22;2392;52.578;13.426;2024-03-06T15:08:17;9.90;99.90
4757;DHT22;2392;52.578;13.426;2024-03-06T15:10:43;9.80;99.90
4757;DHT22;2392;52.578;13.426;2024-03-06T15:13:10;9.80;99.90
4757;DHT22;2392;52.578;13.426;2024-03-06T15:15:39;9.80;99.90
4757;DHT22;2392;52.578;13.426;2024-03-06T15:18:06;9.80;99.90
4757;DHT22;2392;52.578;13.426;2024-03-06T15:20:33;9.80;99.90
4757;DHT22;2392;52.578;13.426;2024-03-06T15:23:00;9.80;99.90
4757;DHT22;2392;52.578;13.426;2024-03-06T15:25:28;9.80;99.90
4757;DHT22;2392;52.578;13.426;2024-03-06T15:27:55;9.80;99.90
4757;DHT22;2392;52.578;13.426;2024-03-06T15:30:22;9.80;99.90
4757;DHT22;2392;52.578;13.426;2024-03-06T15:32:49;9.80;99.90
4757;DHT22;2392;52.578;13.426;2024-03-06T15:35:16;9.80;99.90
4757;DHT22;2392;52.578;13.426;2024-03-06T15:37:42;9.70;99.90
4757;DHT22;2392;52.578;13.426;2024-03-06T15:40:10;9.70;99.90
4757;DHT22;2392;52.578;13.426;2024-03-06T15:42:38;9.70;99.90
4757;DHT22;2392;52.578;13.426;2024-03-06T15:45:06;9.70;99.90
4757;DHT22;2392;52.578;13.426;2024-03-06T15:47:33;9.70;99.90
4757;DHT22;2392;52.578;13.426;2024-03-06T15:50:03;9.60;99.90
4757;DHT22;2392;52.578;13.426;2024-03-06T15:52:30;9.50;99.90
4757;DHT22;2392;52.578;13.426;2024-03-06T15:54:56;9.40;99.90
4757;DHT22;2392;52.578;13.426;2024-03-06T15:57:23;9.40;99.90
4757;DHT22;2392;52.578;13.426;2024-03-06T15:59:51;9.40;99.90